Terminal Aerodrome Forecast
Issued by NWS Upton, NY

Home | Current Version | Previous Version | Text Only | Print | Product List | Glossary On
Versions: 1 2 3 4 5 6 7 8 9 10 11 12 13 14 15 16 17 18 19 20 21 22 23 24 25 26 27 28 29 30 31
396
FTUS41 KOKX 261332 AAA
TAFLGA
TAF AMD
KLGA 261332Z 2614/2712 30007KT P6SM FEW100
     FM261600 25011KT P6SM FEW050
     FM261900 20014KT P6SM SCT050
     FM270200 23008KT P6SM FEW050 SCT100
     FM271000 26005KT P6SM BKN070=

USA.gov is the U.S. government's official web portal to all federal, state and local government web resources and services.